createdAt,value
2022-12-31T00:02:26.745Z,99169.75
2022-12-31T00:07:23.650Z,99164.56
2022-12-31T00:12:19.986Z,99182.28
2022-12-31T00:17:16.392Z,99191.41
2022-12-31T00:22:12.834Z,99197.84
2022-12-31T00:27:09.209Z,99211.41
2022-12-31T00:32:05.872Z,99206.88
2022-12-31T00:37:02.228Z,99210.06
2022-12-31T00:41:58.681Z,99198.03
2022-12-31T00:46:55.029Z,99211.22
2022-12-31T00:51:51.628Z,99198.00
2022-12-31T00:56:48.046Z,99203.19
2022-12-31T01:01:44.517Z,99192.38
2022-12-31T01:06:42.283Z,99189.06
2022-12-31T01:11:38.674Z,99192.72
2022-12-31T01:16:39.889Z,99195.56
2022-12-31T01:21:37.837Z,99199.84
2022-12-31T01:26:34.593Z,99202.28
2022-12-31T01:31:32.802Z,99197.00
2022-12-31T01:36:31.293Z,99201.31
2022-12-31T01:41:31.213Z,99205.28
2022-12-31T01:46:48.432Z,99212.28
2022-12-31T01:51:49.594Z,99209.25
2022-12-31T01:56:48.664Z,99194.81
2022-12-31T02:01:48.125Z,99203.31
2022-12-31T02:06:51.138Z,99207.78
2022-12-31T02:11:47.757Z,99193.63
2022-12-31T02:16:54.751Z,99189.28
2022-12-31T02:21:56.237Z,99184.94
2022-12-31T02:27:01.803Z,99173.09
2022-12-31T02:32:08.355Z,99166.94
2022-12-31T02:37:08.939Z,99170.25
2022-12-31T02:42:05.664Z,99167.75
2022-12-31T02:47:15.648Z,99170.25
2022-12-31T02:52:31.598Z,99157.63
2022-12-31T02:57:39.388Z,99156.00
2022-12-31T03:02:40.908Z,99157.50
2022-12-31T03:07:40.592Z,99165.66
2022-12-31T03:12:46.235Z,99167.31
2022-12-31T03:17:42.571Z,99157.72
2022-12-31T03:22:42.198Z,99158.41
2022-12-31T03:27:38.620Z,99160.81
2022-12-31T03:32:35.243Z,99168.84
2022-12-31T03:37:31.712Z,99154.28
2022-12-31T03:42:28.044Z,99155.19
2022-12-31T03:47:24.425Z,99142.34
2022-12-31T03:52:21.106Z,99117.69
2022-12-31T03:57:17.575Z,99108.50
2022-12-31T04:02:14.080Z,99094.00
2022-12-31T04:07:10.697Z,99080.28
2022-12-31T04:12:07.953Z,99083.22
2022-12-31T04:17:04.328Z,99136.03
2022-12-31T04:22:00.767Z,99154.09
2022-12-31T04:27:02.097Z,99171.19
2022-12-31T04:32:02.459Z,99186.63
2022-12-31T04:36:59.028Z,99192.91
2022-12-31T04:41:55.575Z,99204.25
2022-12-31T04:46:52.013Z,99228.69
2022-12-31T04:51:48.355Z,99229.84
2022-12-31T04:56:44.713Z,99232.47
2022-12-31T05:01:41.226Z,99241.97
2022-12-31T05:06:37.780Z,99263.63
2022-12-31T05:11:35.643Z,99265.25
2022-12-31T05:16:32.050Z,99256.41
2022-12-31T05:21:28.886Z,99257.72
2022-12-31T05:26:25.341Z,99262.97
2022-12-31T05:31:22.073Z,99259.16
2022-12-31T05:36:18.560Z,99263.50
2022-12-31T05:41:15.098Z,99258.00
2022-12-31T05:46:11.543Z,99267.88
2022-12-31T05:51:07.892Z,99274.09
2022-12-31T05:56:04.403Z,99259.97
2022-12-31T06:01:00.806Z,99273.72
2022-12-31T06:05:57.227Z,99278.16
2022-12-31T06:10:53.605Z,99287.50
2022-12-31T06:15:49.991Z,99285.38
2022-12-31T06:20:46.387Z,99270.84
2022-12-31T06:25:42.800Z,99254.38
2022-12-31T06:30:39.165Z,99250.41
2022-12-31T06:35:35.543Z,99231.38
2022-12-31T06:40:31.903Z,99192.31
2022-12-31T06:45:28.286Z,99156.72
2022-12-31T06:50:24.669Z,99155.59
2022-12-31T06:55:21.215Z,99151.06
2022-12-31T07:00:18.252Z,99144.88
2022-12-31T07:05:44.434Z,99146.19
2022-12-31T07:10:56.132Z,99176.44
2022-12-31T07:16:20.616Z,99174.28
2022-12-31T07:21:25.141Z,99166.94
2022-12-31T07:26:43.435Z,99204.16
2022-12-31T07:32:02.699Z,99191.72
2022-12-31T07:37:01.862Z,99193.66
2022-12-31T07:41:58.202Z,99202.44
2022-12-31T07:47:00.236Z,99202.53
2022-12-31T07:51:57.063Z,99224.69
2022-12-31T07:56:53.680Z,99226.19
2022-12-31T08:02:01.920Z,99227.28
2022-12-31T08:07:09.730Z,99226.28
2022-12-31T08:12:08.096Z,99235.28
2022-12-31T08:17:04.769Z,99235.47
2022-12-31T08:22:33.679Z,99233.44
2022-12-31T08:28:00.314Z,99248.84
2022-12-31T08:33:52.564Z,99243.81
2022-12-31T08:39:36.482Z,99252.75
2022-12-31T08:44:37.282Z,99254.06
2022-12-31T08:49:35.335Z,99264.97
2022-12-31T08:54:31.676Z,99261.81
2022-12-31T08:59:40.262Z,99254.69
2022-12-31T09:04:49.386Z,99273.31
2022-12-31T09:10:11.171Z,99267.31
2022-12-31T09:15:33.809Z,99277.00
2022-12-31T09:20:42.750Z,99278.59
2022-12-31T09:25:55.866Z,99292.03
2022-12-31T09:31:13.260Z,99296.19
2022-12-31T09:36:22.095Z,99282.78
2022-12-31T09:41:24.565Z,99303.03
2022-12-31T09:46:42.216Z,99287.00
2022-12-31T09:51:44.876Z,99315.53
2022-12-31T09:57:23.352Z,99325.91
2022-12-31T10:02:47.451Z,99328.88
2022-12-31T10:08:04.223Z,99329.06
2022-12-31T10:13:20.765Z,99339.81
2022-12-31T10:18:35.321Z,99337.94
2022-12-31T10:23:59.963Z,99376.16
2022-12-31T10:29:06.075Z,99364.19
2022-12-31T10:34:21.299Z,99367.22
2022-12-31T10:39:39.456Z,99386.78
2022-12-31T10:44:54.261Z,99391.59
2022-12-31T10:50:18.300Z,99425.69
2022-12-31T10:55:32.798Z,99416.22
2022-12-31T11:00:34.845Z,99418.72
2022-12-31T11:05:56.598Z,99437.72
2022-12-31T11:11:14.181Z,99407.03
2022-12-31T11:16:20.639Z,99430.56
2022-12-31T11:21:46.348Z,99413.63
2022-12-31T11:27:01.501Z,99418.06
2022-12-31T11:32:20.213Z,99411.88
2022-12-31T11:37:40.636Z,99416.41
2022-12-31T11:42:49.699Z,99407.63
2022-12-31T11:48:30.042Z,99404.31
2022-12-31T11:53:41.073Z,99389.50
2022-12-31T11:58:37.516Z,99376.72
2022-12-31T12:03:38.475Z,99400.78
2022-12-31T12:08:36.658Z,99406.47
2022-12-31T12:13:33.962Z,99403.41
2022-12-31T12:18:54.285Z,99407.09
2022-12-31T12:24:19.821Z,99403.78
2022-12-31T12:29:22.388Z,99411.19
2022-12-31T12:34:34.244Z,99423.63
2022-12-31T12:39:32.817Z,99414.47
2022-12-31T12:44:29.685Z,99419.31
2022-12-31T12:49:29.348Z,99403.78
2022-12-31T12:54:34.285Z,99399.41
2022-12-31T12:59:49.124Z,99425.28
2022-12-31T13:05:13.572Z,99415.72
2022-12-31T13:10:49.544Z,99418.69
2022-12-31T13:15:59.036Z,99423.22
2022-12-31T13:21:24.329Z,99421.44
2022-12-31T13:26:29.877Z,99417.63
2022-12-31T13:31:37.630Z,99435.72
2022-12-31T13:36:38.430Z,99427.19
2022-12-31T13:41:41.931Z,99444.69
2022-12-31T13:47:04.152Z,99445.69
2022-12-31T13:52:22.338Z,99439.53
2022-12-31T13:57:30.064Z,99444.72
2022-12-31T14:02:52.629Z,99449.97
2022-12-31T14:07:59.331Z,99464.09
2022-12-31T14:13:05.798Z,99460.81
2022-12-31T14:18:13.656Z,99453.81
2022-12-31T14:23:24.856Z,99472.63
2022-12-31T14:28:27.333Z,99489.44
2022-12-31T14:34:00.631Z,99503.38
2022-12-31T14:39:18.494Z,99493.50
2022-12-31T14:44:40.632Z,99509.78
2022-12-31T14:50:00.006Z,99513.03
2022-12-31T14:55:08.441Z,99515.56
2022-12-31T15:00:23.624Z,99501.06
2022-12-31T15:05:23.902Z,99508.63
2022-12-31T15:10:52.775Z,99516.47
2022-12-31T15:16:22.095Z,99508.13
2022-12-31T15:21:37.315Z,99506.97
2022-12-31T15:26:34.666Z,99513.78
2022-12-31T15:31:33.168Z,99515.31
2022-12-31T15:36:32.318Z,99518.50
2022-12-31T15:42:18.594Z,99511.28
2022-12-31T15:47:29.287Z,99528.53
2022-12-31T15:52:50.434Z,99531.91
2022-12-31T15:57:47.219Z,99533.72
2022-12-31T16:02:45.260Z,99553.69
2022-12-31T16:07:42.080Z,99553.69
2022-12-31T16:12:44.665Z,99555.50
2022-12-31T16:17:41.851Z,99553.13
2022-12-31T16:22:39.721Z,99555.00
2022-12-31T16:27:36.129Z,99553.34
2022-12-31T16:32:38.413Z,99562.38
2022-12-31T16:37:35.069Z,99559.84
2022-12-31T16:42:31.413Z,99558.34
2022-12-31T16:47:35.388Z,99567.03
2022-12-31T16:52:35.642Z,99571.53
2022-12-31T16:57:32.411Z,99566.69
2022-12-31T17:02:40.262Z,99564.50
2022-12-31T17:07:42.268Z,99561.50
2022-12-31T17:13:25.628Z,99546.25
2022-12-31T17:18:04.717Z,99550.25
2022-12-31T17:23:06.579Z,99544.91
2022-12-31T17:28:19.802Z,99547.44
2022-12-31T17:33:22.109Z,99546.59
2022-12-31T17:38:21.204Z,99539.41
2022-12-31T17:43:22.774Z,99524.84
2022-12-31T17:48:20.362Z,99518.84
2022-12-31T17:53:18.129Z,99524.50
2022-12-31T17:58:29.671Z,99514.16
2022-12-31T18:03:26.495Z,99510.47
2022-12-31T18:08:22.906Z,99493.69
2022-12-31T18:13:22.691Z,99511.09
2022-12-31T18:18:25.595Z,99483.78
2022-12-31T18:23:26.133Z,99499.53
2022-12-31T18:28:23.189Z,99502.03
2022-12-31T18:33:22.226Z,99507.91
2022-12-31T18:38:20.236Z,99497.69
2022-12-31T18:43:18.001Z,99511.22
2022-12-31T18:48:15.298Z,99507.22
2022-12-31T18:53:17.369Z,99485.44
2022-12-31T18:58:13.723Z,99494.00
2022-12-31T19:03:21.899Z,99502.69
2022-12-31T19:08:23.305Z,99504.38
2022-12-31T19:13:20.163Z,99524.84
2022-12-31T19:18:16.637Z,99516.16
2022-12-31T19:23:18.858Z,99520.47
2022-12-31T19:28:24.171Z,99504.25
2022-12-31T19:33:20.543Z,99527.19
2022-12-31T19:38:23.113Z,99519.66
2022-12-31T19:43:22.117Z,99523.00
2022-12-31T19:48:30.460Z,99531.03
2022-12-31T19:53:28.811Z,99517.81
2022-12-31T19:58:26.756Z,99536.41
2022-12-31T20:03:23.369Z,99535.91
2022-12-31T20:08:22.682Z,99547.28
2022-12-31T20:13:19.035Z,99552.28
2022-12-31T20:18:20.859Z,99554.47
2022-12-31T20:23:17.258Z,99555.66
2022-12-31T20:28:13.653Z,99573.59
2022-12-31T20:33:13.207Z,99567.38
2022-12-31T20:38:13.984Z,99578.94
2022-12-31T20:43:10.812Z,99579.78
2022-12-31T20:48:07.176Z,99581.97
2022-12-31T20:53:03.537Z,99600.88
2022-12-31T20:58:00.555Z,99597.00
2022-12-31T21:03:06.710Z,99601.84
2022-12-31T21:08:10.860Z,99605.50
2022-12-31T21:13:07.260Z,99609.72
2022-12-31T21:18:04.093Z,99603.16
2022-12-31T21:23:00.794Z,99612.69
2022-12-31T21:27:57.199Z,99622.38
2022-12-31T21:32:53.689Z,99624.25
2022-12-31T21:37:59.238Z,99623.72
2022-12-31T21:42:57.704Z,99619.22
2022-12-31T21:48:12.704Z,99615.88
2022-12-31T21:53:09.059Z,99617.03
2022-12-31T22:03:24.556Z,99634.31
2022-12-31T22:08:22.053Z,99638.00
2022-12-31T22:13:18.996Z,99643.88
2022-12-31T22:18:17.743Z,99643.03
2022-12-31T22:23:14.426Z,99644.22
2022-12-31T22:28:40.390Z,99651.75
2022-12-31T22:33:27.183Z,99667.84
2022-12-31T22:38:23.524Z,99656.63
2022-12-31T22:43:19.942Z,99661.47
2022-12-31T22:48:16.277Z,99674.91
2022-12-31T22:53:12.690Z,99682.94
2022-12-31T22:58:09.017Z,99672.84
2022-12-31T23:03:05.570Z,99684.09
2022-12-31T23:08:07.963Z,99675.69
2022-12-31T23:13:27.666Z,99681.25
2022-12-31T23:18:42.760Z,99678.56
2022-12-31T23:23:39.132Z,99680.56
2022-12-31T23:28:35.682Z,99679.72
2022-12-31T23:33:32.001Z,99693.31
2022-12-31T23:38:28.901Z,99687.63
2022-12-31T23:43:25.290Z,99703.06
2022-12-31T23:48:21.897Z,99692.97
2022-12-31T23:53:18.359Z,99688.97
2022-12-31T23:58:15.311Z,99690.78
